Danville, Illinois
Current Conditions -  °F | °C
As of 8:55 AM on Saturday 20 Dec 2014 (Local Time) from KDNV Reporting Station
Haze Haze  
Wind Chill: 30°   Ceiling: 2600
Heat Index: 30°   Visibility: 5mi
Dew Point: 28°   Wind: 0mph
Humidity: 89%   Direction: NA
Pressure: 30.27"   Gusts: NA
Location:  40.16°N, 87.63°W
Report Text: KDNV 201455Z AUTO 00000KT 5SM BR OVC026 M01/M02 A3027 RMK AO2 T10091025
Loading
Personal Weather Stations






























Interactive Weather Map New forecast layout! Learn more

10-Day Weather Forecast

Advertisements
Track Severe Weather on mobile